首页
METAR-TAF:

METAR-TAF

机场 :

呼和浩特, 中华人民共和国

呼和浩特白塔国际机场

纬度: 40-49N, 经度: 111-41E, 海拔: 1065米

当前天气观测

该预报发布于11分钟前的00:00 UTC
风速4节,风向东北,在之间变化
温度 -9°C
湿度 67%
气压 1020 hPa
能见度10公里或以上
1500米以下无云,无积雨云

METAR: ZBHH 250000Z 04002MPS 010V090 CAVOK M09/M14 Q1020 NOSIG

时间: 08:11 (00:11 UTC)

预报

该预报发布于5小时和4分钟前的19:07 UTC
预报有效从25日的 00点(UTC)到 25日的 24点(UTC)
风速8节,风向西南
能见度10公里或以上
少量云层高于4000英尺

TAF: ZBHH 241907Z 2500/2524 23004MPS 9999 FEW040 TX04/2507Z TNM12/22Z

超过4000个机场的气象观测和天气预报(METAR&TAF报告)。

可查询的气象台以黄色和红色小点在地图上表示。

将鼠标移到小点上方,可查看气象台名称。

然后点击查看天气观测和预报。

如需切换地图:点击带黑十字的绿色按钮放大地图;点击带横线的绿色按钮缩小地图;或者点击绿色箭头查看邻近地区的地图。


METAR-TAF: